Time;durP1;ratioP1;P1;durP2;ratioP2;P2;SDS_P1;SDS_P2;PMS_P1;PMS_P2;Temp;Humidity;BMP_temperature;BMP_pressure;BME280_temperature;BME280_humidity;BME280_pressure;Samples;Min_cycle;Max_cycle;Signal;HPM_P1;HPM_P2
2022/01/09 00:02:16;;;;;;;1999.90;999.90;;;3.90;99.90;;;;;;6256944;22;20752;-79
2022/01/09 00:04:45;;;;;;;1999.90;999.90;;;3.90;99.90;;;;;;6293313;22;20786;-80
2022/01/09 00:07:14;;;;;;;1999.90;999.90;;;3.90;99.90;;;;;;6282490;22;20421;-79
2022/01/09 00:09:48;;;;;;;1999.90;999.90;;;3.90;99.90;;;;;;6256421;22;20412;-79
2022/01/09 00:12:16;;;;;;;1999.90;999.90;;;3.90;99.90;;;;;;6256045;22;20450;-79
2022/01/09 00:14:45;;;;;;;1999.90;999.90;;;4.00;99.90;;;;;;6256129;22;20466;-79
2022/01/09 00:17:13;;;;;;;1999.90;999.90;;;3.90;99.90;;;;;;6256052;22;20519;-79
2022/01/09 00:19:41;;;;;;;1999.90;999.90;;;3.90;99.90;;;;;;6283895;22;20420;-79
2022/01/09 00:22:14;;;;;;;1821.90;479.97;;;3.90;99.90;;;;;;6255944;22;20427;-79
2022/01/09 00:24:48;;;;;;;1999.90;999.90;;;4.00;99.90;;;;;;6255852;22;20944;-79
2022/01/09 00:27:16;;;;;;;1999.90;999.90;;;4.00;99.90;;;;;;6256249;22;20431;-79
2022/01/09 00:29:44;;;;;;;1999.90;999.90;;;4.00;99.90;;;;;;6256515;22;20405;-79
2022/01/09 00:32:12;;;;;;;1999.90;999.90;;;4.00;99.90;;;;;;6284152;22;20411;-79
2022/01/09 00:34:43;;;;;;;1999.90;999.90;;;4.00;99.90;;;;;;6256501;22;20552;-79
2022/01/09 00:37:13;;;;;;;1999.90;999.90;;;4.10;99.90;;;;;;6256374;22;20884;-79
2022/01/09 00:39:41;;;;;;;1999.90;999.90;;;4.00;99.90;;;;;;6256914;22;20418;-79
2022/01/09 00:42:09;;;;;;;1999.90;999.90;;;4.00;99.90;;;;;;6257421;22;20416;-79
2022/01/09 00:44:38;;;;;;;1733.50;458.07;;;4.00;99.90;;;;;;6264471;22;20444;-79
2022/01/09 00:47:06;;;;;;;1999.90;999.90;;;4.00;99.90;;;;;;6300974;22;20463;-79
2022/01/09 00:49:35;;;;;;;1999.90;999.90;;;4.00;99.90;;;;;;6273735;22;20496;-80
2022/01/09 00:52:05;;;;;;;1999.90;999.90;;;4.10;99.90;;;;;;6308872;22;20901;-79
2022/01/09 00:54:34;;;;;;;1999.90;999.90;;;4.10;99.90;;;;;;6267793;22;20432;-79
2022/01/09 00:57:03;;;;;;;1999.90;999.90;;;4.00;99.90;;;;;;6259213;22;21007;-80
2022/01/09 00:59:31;;;;;;;1799.97;750.73;;;4.10;99.90;;;;;;6286195;22;20416;-79
2022/01/09 01:02:03;;;;;;;1999.90;999.90;;;4.10;99.90;;;;;;6284622;22;20423;-79
2022/01/09 01:04:34;;;;;;;1999.90;999.90;;;4.10;99.90;;;;;;6297268;22;20448;-79
2022/01/09 01:07:03;;;;;;;1999.90;999.90;;;4.10;99.90;;;;;;6259812;22;20418;-80
2022/01/09 01:09:32;;;;;;;1999.90;999.90;;;4.10;99.90;;;;;;6259480;22;20444;-80
2022/01/09 01:12:05;;;;;;;1999.90;999.90;;;4.10;99.90;;;;;;6259404;22;20419;-80
2022/01/09 01:14:37;;;;;;;1728.10;463.30;;;4.10;99.90;;;;;;6258913;22;20434;-80
2022/01/09 01:17:05;;;;;;;1999.90;999.90;;;4.10;99.90;;;;;;6258084;22;20429;-79
2022/01/09 01:19:34;;;;;;;1999.90;999.90;;;4.10;99.90;;;;;;6286683;22;20424;-79
2022/01/09 01:22:25;;;;;;;1999.90;999.90;;;4.10;99.90;;;;;;6259548;22;20412;-79
2022/01/09 01:24:57;;;;;;;1999.90;999.90;;;4.10;99.90;;;;;;6258688;22;20432;-79
2022/01/09 01:27:27;;;;;;;1999.90;999.90;;;4.10;99.90;;;;;;6259015;22;20433;-79
2022/01/09 01:30:23;;;;;;;1999.90;999.90;;;4.10;99.90;;;;;;6284178;22;20741;-80
2022/01/09 01:32:56;;;;;;;1999.90;999.90;;;4.10;99.90;;;;;;6286436;22;20854;-79
2022/01/09 01:35:25;;;;;;;1999.90;999.90;;;4.10;99.90;;;;;;6259036;22;20419;-79
2022/01/09 01:37:54;;;;;;;1999.90;999.90;;;4.10;99.90;;;;;;6282844;22;20502;-79
2022/01/09 01:40:24;;;;;;;1941.37;497.33;;;4.10;99.90;;;;;;6283262;22;20914;-79
2022/01/09 01:42:55;;;;;;;1999.90;999.90;;;4.10;99.90;;;;;;6255968;22;20926;-79
2022/01/09 01:45:24;;;;;;;1999.90;768.33;;;4.10;99.90;;;;;;6258818;22;20442;-80
2022/01/09 01:47:52;;;;;;;1999.90;999.90;;;4.10;99.90;;;;;;6258028;22;20419;-79
2022/01/09 01:50:22;;;;;;;1999.90;999.90;;;4.10;99.90;;;;;;6258778;22;20408;-79
2022/01/09 01:52:57;;;;;;;1999.90;999.90;;;4.10;99.90;;;;;;6296596;22;20400;-79
2022/01/09 01:55:25;;;;;;;1999.90;999.90;;;4.10;99.90;;;;;;6257301;22;20413;-79
2022/01/09 01:57:55;;;;;;;1999.90;753.03;;;4.10;99.90;;;;;;6256751;22;20443;-79
2022/01/09 02:00:30;;;;;;;1989.47;485.43;;;4.10;99.90;;;;;;6256519;22;20420;-79
2022/01/09 02:03:00;;;;;;;1937.47;497.53;;;4.10;99.90;;;;;;6258764;22;20427;-79
2022/01/09 02:05:29;;;;;;;1999.90;999.90;;;4.10;99.90;;;;;;6257596;22;20443;-79
2022/01/09 02:08:00;;;;;;;1999.90;999.90;;;4.10;99.90;;;;;;6257187;22;20419;-79
2022/01/09 02:10:28;;;;;;;1999.90;779.37;;;4.10;99.90;;;;;;6257094;22;20436;-79
2022/01/09 02:12:58;;;;;;;1863.90;516.57;;;4.10;99.90;;;;;;6256776;22;20419;-80
2022/01/09 02:15:43;;;;;;;1999.90;815.60;;;4.10;99.90;;;;;;6257047;22;20415;-79
2022/01/09 02:18:13;;;;;;;1999.90;999.90;;;4.10;99.90;;;;;;6257462;22;20436;-79
2022/01/09 02:20:43;;;;;;;1999.90;999.90;;;4.10;99.90;;;;;;6257482;22;20417;-79
2022/01/09 02:23:12;;;;;;;1999.90;999.90;;;4.00;99.90;;;;;;6283575;22;20437;-79
2022/01/09 02:25:41;;;;;;;1999.90;335.83;;;4.00;99.90;;;;;;6284953;22;20404;-79
2022/01/09 02:28:11;;;;;;;1999.90;354.70;;;4.10;99.90;;;;;;6258944;22;20483;-80
2022/01/09 02:30:49;;;;;;;1999.90;329.77;;;4.10;99.90;;;;;;6259795;22;20488;-81
2022/01/09 02:33:19;;;;;;;1999.90;611.90;;;4.00;99.90;;;;;;6286042;22;20437;-79
2022/01/09 02:35:52;;;;;;;1999.90;808.67;;;4.00;99.90;;;;;;6259140;22;20424;-79
2022/01/09 02:38:21;;;;;;;1999.90;802.97;;;4.00;99.90;;;;;;6259194;22;20442;-79
2022/01/09 02:40:54;;;;;;;1999.90;572.40;;;4.00;99.90;;;;;;6258989;22;20447;-79
2022/01/09 02:43:25;;;;;;;1999.90;999.90;;;4.00;99.90;;;;;;6260286;22;20836;-80
2022/01/09 02:46:03;;;;;;;1999.90;846.23;;;4.00;99.90;;;;;;6259722;22;20866;-79
2022/01/09 02:48:35;;;;;;;1999.90;375.87;;;4.00;99.90;;;;;;6259250;22;20419;-80
2022/01/09 02:51:10;;;;;;;1999.90;999.90;;;4.00;99.90;;;;;;6258915;22;20435;-79
2022/01/09 02:53:39;;;;;;;1999.90;647.40;;;4.00;99.90;;;;;;6285955;22;20788;-79
2022/01/09 02:56:10;;;;;;;1999.90;620.27;;;4.00;99.90;;;;;;6259387;22;20427;-79
2022/01/09 02:58:39;;;;;;;1999.90;838.80;;;4.00;99.90;;;;;;6258958;22;20439;-79
2022/01/09 03:01:11;;;;;;;1999.90;482.00;;;4.00;99.90;;;;;;6258719;22;20411;-79
2022/01/09 03:03:41;;;;;;;1999.90;483.03;;;3.90;99.90;;;;;;6286538;22;20456;-80
2022/01/09 03:06:14;;;;;;;1999.90;507.10;;;4.00;99.90;;;;;;6257570;22;20439;-79
2022/01/09 03:08:45;;;;;;;1999.90;499.50;;;3.90;99.90;;;;;;6258346;22;20439;-79
2022/01/09 03:11:16;;;;;;;1999.90;500.63;;;3.90;99.90;;;;;;6258277;22;20409;-79
2022/01/09 03:13:45;;;;;;;1999.90;682.10;;;3.90;99.90;;;;;;6257666;22;20471;-79
2022/01/09 03:16:14;;;;;;;1999.90;530.87;;;3.90;99.90;;;;;;6295489;22;20439;-79
2022/01/09 03:18:46;;;;;;;1999.90;578.17;;;3.90;99.90;;;;;;6258666;22;20445;-80
2022/01/09 03:21:20;;;;;;;1999.90;575.50;;;3.90;99.90;;;;;;6285809;22;20468;-79
2022/01/09 03:29:11;;;;;;;1999.90;630.37;;;3.90;99.90;;;;;;6067130;23;20423;-78
2022/01/09 03:36:46;;;;;;;1999.90;495.20;;;3.90;99.90;;;;;;5926492;24;20430;-79
2022/01/09 03:39:18;;;;;;;1999.90;523.13;;;3.90;99.90;;;;;;5966522;23;20428;-80
2022/01/09 03:41:48;;;;;;;1999.90;585.60;;;3.80;99.90;;;;;;5996913;23;20407;-79
2022/01/09 03:44:18;;;;;;;1999.90;588.67;;;3.90;99.90;;;;;;6011189;23;20501;-79
2022/01/09 03:46:50;;;;;;;1999.90;644.80;;;3.80;99.90;;;;;;6083006;23;20404;-79
2022/01/09 03:49:21;;;;;;;1999.90;635.97;;;3.90;99.90;;;;;;6106520;23;20422;-79
2022/01/09 03:52:00;;;;;;;1999.90;897.37;;;3.90;99.90;;;;;;6129268;23;20490;-79
2022/01/09 03:54:32;;;;;;;1999.90;565.30;;;3.90;99.90;;;;;;6117363;23;20430;-79
2022/01/09 03:57:00;;;;;;;1999.90;540.93;;;3.90;99.90;;;;;;6082611;23;20441;-79
2022/01/09 03:59:28;;;;;;;1999.90;580.53;;;3.90;99.90;;;;;;6081931;23;20762;-79
2022/01/09 04:01:56;;;;;;;1999.90;708.23;;;3.90;99.90;;;;;;6205056;22;20444;-79
2022/01/09 04:04:24;;;;;;;1999.90;617.27;;;3.90;99.90;;;;;;6262028;22;20436;-80
2022/01/09 04:06:54;;;;;;;1999.90;697.67;;;3.90;99.90;;;;;;6261632;22;20426;-79
2022/01/09 04:09:36;;;;;;;1999.90;658.27;;;3.90;99.90;;;;;;6299272;22;20451;-79
2022/01/09 04:12:14;;;;;;;1999.90;628.13;;;3.80;99.90;;;;;;6279270;22;20389;-79
2022/01/09 04:14:44;;;;;;;1999.90;584.53;;;3.90;99.90;;;;;;6306435;22;20425;-79
2022/01/09 04:17:25;;;;;;;1999.90;589.63;;;3.90;99.90;;;;;;6316435;22;20380;-79
2022/01/09 04:19:57;;;;;;;1421.87;294.40;;;3.80;99.90;;;;;;6303676;22;20429;-79
2022/01/09 04:22:27;;;;;;;1999.90;623.43;;;3.80;99.90;;;;;;6269671;22;20416;-79
2022/01/09 04:25:05;;;;;;;1999.90;613.17;;;3.80;99.90;;;;;;6261820;22;20440;-79
2022/01/09 04:27:38;;;;;;;1999.90;556.47;;;3.80;99.90;;;;;;6260915;22;20407;-80
2022/01/09 04:30:12;;;;;;;1598.97;339.23;;;3.80;99.90;;;;;;6260882;22;20404;-80
2022/01/09 04:32:42;;;;;;;1999.90;640.27;;;3.80;99.90;;;;;;6299183;22;20377;-81
2022/01/09 04:35:11;;;;;;;1999.90;611.77;;;3.80;99.90;;;;;;6261167;22;20783;-80
2022/01/09 04:37:43;;;;;;;1999.90;665.73;;;3.80;99.90;;;;;;6262198;22;20487;-79
2022/01/09 04:40:14;;;;;;;1999.90;603.47;;;3.80;99.90;;;;;;6261389;22;20423;-82
2022/01/09 04:42:47;;;;;;;1999.90;608.77;;;3.80;99.90;;;;;;6289204;22;20408;-80
2022/01/09 04:49:12;;;;;;;1999.90;999.90;;;3.80;99.90;;;;;;6173950;22;20510;-80
2022/01/09 04:51:40;;;;;;;1999.90;527.80;;;3.80;99.90;;;;;;6297380;22;20790;-79
2022/01/09 04:54:10;;;;;;;1999.90;648.00;;;3.80;99.90;;;;;;6260418;22;20429;-80
2022/01/09 04:56:38;;;;;;;1999.90;605.63;;;3.80;99.90;;;;;;6288017;22;20428;-80
2022/01/09 04:59:10;;;;;;;1999.90;586.77;;;3.70;99.90;;;;;;6261685;22;20472;-80
2022/01/09 05:01:39;;;;;;;1999.90;899.77;;;3.80;99.90;;;;;;6262151;22;20415;-80
2022/01/09 05:04:11;;;;;;;1999.90;661.13;;;3.80;99.90;;;;;;6288934;22;20435;-80
2022/01/09 05:06:42;;;;;;;1999.90;642.67;;;3.70;99.90;;;;;;6262024;22;20934;-80
2022/01/09 05:09:11;;;;;;;1999.90;708.23;;;3.70;99.90;;;;;;6261612;22;20888;-80
2022/01/09 05:11:40;;;;;;;1999.90;658.73;;;3.70;99.90;;;;;;6260618;22;20413;-79
2022/01/09 05:14:08;;;;;;;1999.90;618.73;;;3.70;99.90;;;;;;6260817;22;20775;-79
2022/01/09 05:16:47;;;;;;;1999.90;627.80;;;3.70;99.90;;;;;;6268460;22;20475;-79
2022/01/09 05:19:22;;;;;;;1999.90;670.90;;;3.70;99.90;;;;;;6302512;22;20466;-79
2022/01/09 05:21:50;;;;;;;1999.90;646.30;;;3.70;99.90;;;;;;6292342;22;20403;-80
2022/01/09 05:24:22;;;;;;;1999.90;783.50;;;3.70;99.90;;;;;;6287589;22;20607;-79
2022/01/09 05:26:53;;;;;;;1999.90;776.47;;;3.70;99.90;;;;;;6260244;22;20889;-80
2022/01/09 05:29:21;;;;;;;1999.90;665.70;;;3.70;99.90;;;;;;6261222;22;20492;-80
2022/01/09 05:31:53;;;;;;;1999.90;614.57;;;3.60;99.90;;;;;;6260864;22;20407;-79
2022/01/09 05:34:36;;;;;;;1999.90;606.57;;;3.60;99.90;;;;;;6285757;22;20432;-79
2022/01/09 05:37:08;;;;;;;1999.90;733.40;;;3.60;99.90;;;;;;6260151;22;20416;-79
2022/01/09 05:39:38;;;;;;;1999.90;579.30;;;3.60;99.90;;;;;;6287007;22;20433;-79
2022/01/09 05:42:09;;;;;;;1999.90;705.27;;;3.60;99.90;;;;;;6260091;22;20415;-80
2022/01/09 05:44:37;;;;;;;1999.90;680.57;;;3.60;99.90;;;;;;6259865;22;20508;-83
2022/01/09 05:47:06;;;;;;;1999.90;879.93;;;3.50;99.90;;;;;;6259241;22;20491;-79
2022/01/09 05:49:35;;;;;;;1999.90;701.83;;;3.50;99.90;;;;;;6296517;22;20397;-80
2022/01/09 05:52:03;;;;;;;1999.90;633.87;;;3.50;99.90;;;;;;6258655;22;20423;-80
2022/01/09 05:54:32;;;;;;;1999.90;736.73;;;3.50;99.90;;;;;;6258818;22;20531;-79
2022/01/09 05:57:04;;;;;;;1999.90;606.27;;;3.40;99.90;;;;;;6259091;22;20771;-80
2022/01/09 05:59:32;;;;;;;1999.90;657.83;;;3.40;99.90;;;;;;6287148;22;20431;-80
2022/01/09 06:02:06;;;;;;;1999.90;576.90;;;3.40;99.90;;;;;;6296999;22;20480;-80
2022/01/09 06:04:34;;;;;;;1999.90;696.47;;;3.40;99.90;;;;;;6260268;22;20440;-79
2022/01/09 06:07:13;;;;;;;1999.90;693.50;;;3.30;99.90;;;;;;6259978;22;20409;-79
2022/01/09 06:09:41;;;;;;;1999.90;591.33;;;3.30;99.90;;;;;;6260377;22;20819;-80
2022/01/09 06:12:11;;;;;;;1999.90;532.80;;;3.30;99.90;;;;;;6286091;22;20410;-79
2022/01/09 06:14:39;;;;;;;1999.90;578.13;;;3.30;99.90;;;;;;6286589;22;20426;-79
2022/01/09 06:17:11;;;;;;;1999.90;582.97;;;3.30;99.90;;;;;;6260208;22;20952;-79
2022/01/09 06:19:40;;;;;;;1999.90;601.17;;;3.20;99.90;;;;;;6259868;22;20936;-79
2022/01/09 06:22:18;;;;;;;;;;;;;;;;;;;;;
2022/01/09 06:24:46;;;;;;;1999.90;881.03;;;3.20;99.90;;;;;;6283801;22;20469;-80
2022/01/09 06:27:19;;;;;;;1999.90;618.97;;;3.20;99.90;;;;;;6259719;22;20411;-80
2022/01/09 06:29:47;;;;;;;1999.90;693.37;;;3.10;99.90;;;;;;6260115;22;20410;-79
2022/01/09 06:32:16;;;;;;;1999.90;614.77;;;3.10;99.90;;;;;;6260798;22;20419;-80
2022/01/09 06:34:44;;;;;;;1999.90;686.57;;;3.10;99.90;;;;;;6259744;22;20497;-79
2022/01/09 06:37:13;;;;;;;1999.90;640.10;;;3.10;99.90;;;;;;6286883;22;20406;-79
2022/01/09 06:39:42;;;;;;;1999.90;695.90;;;3.10;99.90;;;;;;6258991;22;20440;-80
2022/01/09 06:42:11;;;;;;;1999.90;645.30;;;3.10;99.90;;;;;;6259464;22;20475;-79
2022/01/09 06:44:41;;;;;;;1999.90;678.37;;;3.00;99.90;;;;;;6258733;22;20929;-80
2022/01/09 06:47:10;;;;;;;1999.90;648.77;;;3.00;99.90;;;;;;6285608;22;20769;-80
2022/01/09 06:49:38;;;;;;;1999.90;659.80;;;3.00;99.90;;;;;;6258300;22;20415;-80
2022/01/09 06:52:07;;;;;;;1999.90;635.40;;;3.00;99.90;;;;;;6287164;22;20476;-80
2022/01/09 06:54:35;;;;;;;1999.90;656.33;;;3.00;99.90;;;;;;6258915;22;20476;-80
2022/01/09 06:57:06;;;;;;;1999.90;653.00;;;3.00;99.90;;;;;;6258832;22;20413;-79
2022/01/09 06:59:35;;;;;;;1999.90;699.67;;;3.00;99.90;;;;;;6260342;22;20429;-79
2022/01/09 07:02:08;;;;;;;1999.90;655.40;;;3.00;99.90;;;;;;6284430;22;20417;-80
2022/01/09 07:04:38;;;;;;;1999.90;683.67;;;3.00;99.90;;;;;;6296992;22;20422;-79
2022/01/09 07:07:08;;;;;;;1999.90;706.07;;;3.00;99.90;;;;;;6259136;22;20412;-79
2022/01/09 07:09:36;;;;;;;1999.90;676.13;;;3.00;99.90;;;;;;6258364;22;20411;-79
2022/01/09 07:12:07;;;;;;;1999.90;664.87;;;3.00;99.90;;;;;;6296249;22;20463;-80
2022/01/09 07:14:35;;;;;;;1999.90;704.70;;;3.00;99.90;;;;;;6258974;22;20437;-79
2022/01/09 07:17:08;;;;;;;1999.90;731.80;;;3.00;99.90;;;;;;6259701;22;20419;-80
2022/01/09 07:19:37;;;;;;;1999.90;754.90;;;3.00;99.90;;;;;;6259945;22;20933;-80
2022/01/09 07:22:09;;;;;;;1999.90;762.33;;;3.00;99.90;;;;;;6239700;23;20426;-80
2022/01/09 07:24:37;;;;;;;1999.90;741.77;;;2.90;99.90;;;;;;6228295;23;20772;-80
2022/01/09 07:27:07;;;;;;;1999.90;708.70;;;2.90;99.90;;;;;;6228603;23;20492;-80
2022/01/09 07:29:40;;;;;;;1999.90;732.87;;;3.00;99.90;;;;;;6254255;23;20857;-79
2022/01/09 07:32:17;;;;;;;1999.90;758.40;;;3.00;99.90;;;;;;6228362;23;20454;-79
2022/01/09 07:34:45;;;;;;;1999.90;754.63;;;3.00;99.90;;;;;;6228545;23;20467;-80
2022/01/09 07:37:14;;;;;;;1999.90;708.67;;;3.00;99.90;;;;;;6228928;23;20419;-80
2022/01/09 07:39:42;;;;;;;1999.90;741.90;;;3.00;99.90;;;;;;6265169;23;20507;-80
2022/01/09 07:42:12;;;;;;;1999.90;791.43;;;3.00;99.90;;;;;;6245462;23;20400;-79
2022/01/09 07:44:40;;;;;;;1999.90;748.57;;;3.00;99.90;;;;;;6272141;22;20423;-79
2022/01/09 07:47:13;;;;;;;1999.90;700.13;;;3.00;99.90;;;;;;6272278;23;20372;-80
2022/01/09 07:49:41;;;;;;;1999.90;590.83;;;3.00;99.90;;;;;;6246118;23;20406;-81
2022/01/09 07:52:14;;;;;;;1999.90;624.37;;;3.10;99.90;;;;;;6229525;23;20984;-79
2022/01/09 07:59:14;;;;;;;1999.90;436.90;;;3.10;99.90;;;;;;5953685;24;20429;-79
2022/01/09 08:01:48;;;;;;;1999.90;481.87;;;3.20;99.90;;;;;;5971831;23;20420;-80
2022/01/09 08:04:18;;;;;;;1999.90;999.90;;;3.20;99.90;;;;;;6133585;23;20549;-79
2022/01/09 08:06:47;;;;;;;857.20;288.23;;;3.30;99.90;;;;;;6133022;23;20512;-79
2022/01/09 08:09:15;;;;;;;517.37;212.17;;;3.30;99.90;;;;;;6133220;23;20464;-79
2022/01/09 08:11:43;;;;;;;229.80;144.63;;;3.40;99.90;;;;;;6192953;23;20952;-78
2022/01/09 08:14:14;;;;;;;119.23;109.30;;;3.40;99.90;;;;;;6225380;23;20491;-78
2022/01/09 08:16:45;;;;;;;397.03;147.73;;;3.50;99.90;;;;;;6251743;23;20391;-78
2022/01/09 08:19:13;;;;;;;158.07;44.80;;;3.60;99.90;;;;;;6224683;23;20428;-78
2022/01/09 08:21:45;;;;;;;506.63;110.40;;;3.70;99.90;;;;;;6224786;23;20414;-78
2022/01/09 08:24:15;;;;;;;49.47;45.47;;;3.80;99.90;;;;;;6224106;23;20450;-78
2022/01/09 08:26:51;;;;;;;197.47;33.77;;;3.90;99.90;;;;;;6249908;23;20404;-79
2022/01/09 08:29:19;;;;;;;40.20;36.63;;;4.00;99.90;;;;;;6224979;23;20417;-78
2022/01/09 08:31:47;;;;;;;37.50;32.07;;;4.00;99.90;;;;;;6250436;23;20464;-78
2022/01/09 08:34:16;;;;;;;64.53;31.73;;;4.10;99.90;;;;;;6224714;23;20476;-79
2022/01/09 08:36:45;;;;;;;233.60;40.63;;;4.20;99.90;;;;;;6223920;23;20411;-78
2022/01/09 08:39:13;;;;;;;122.90;29.20;;;4.30;99.90;;;;;;6223973;23;20504;-79
2022/01/09 08:41:42;;;;;;;92.60;28.67;;;4.30;99.90;;;;;;6224198;23;20445;-79
2022/01/09 08:44:12;;;;;;;148.63;26.50;;;4.40;99.90;;;;;;6225912;23;20427;-79
2022/01/09 08:46:40;;;;;;;138.43;21.20;;;4.40;99.90;;;;;;6224711;23;20922;-79
2022/01/09 08:49:08;;;;;;;267.93;37.10;;;4.50;99.90;;;;;;6227647;23;20484;-79
2022/01/09 08:51:36;;;;;;;148.23;25.97;;;4.60;99.90;;;;;;6252897;23;20397;-79
2022/01/09 08:54:08;;;;;;;215.33;32.67;;;4.60;99.90;;;;;;6226692;23;20445;-79
2022/01/09 08:56:41;;;;;;;151.33;24.17;;;4.60;99.90;;;;;;6226615;23;20488;-80
2022/01/09 08:59:13;;;;;;;182.47;27.90;;;4.70;99.90;;;;;;6251865;23;20413;-79
2022/01/09 09:01:46;;;;;;;149.50;23.33;;;4.70;99.90;;;;;;6226258;23;20430;-79
2022/01/09 09:04:14;;;;;;;156.83;22.87;;;4.80;99.90;;;;;;6252500;23;20476;-80
2022/01/09 09:06:43;;;;;;;162.93;25.10;;;4.80;99.90;;;;;;6228912;23;20449;-79
2022/01/09 09:09:13;;;;;;;125.33;24.93;;;4.90;99.90;;;;;;6227263;23;20424;-79
2022/01/09 09:11:44;;;;;;;283.93;36.63;;;4.90;99.90;;;;;;6225984;23;20487;-79
2022/01/09 09:14:12;;;;;;;89.93;18.13;;;4.90;99.90;;;;;;6226058;23;20452;-79
2022/01/09 09:16:40;;;;;;;113.83;17.83;;;5.00;99.90;;;;;;6226768;23;20417;-79
2022/01/09 09:19:11;;;;;;;230.00;28.67;;;5.00;99.90;;;;;;6263910;23;20749;-79
2022/01/09 09:21:39;;;;;;;243.70;32.00;;;5.00;99.90;;;;;;6225217;23;20541;-79
2022/01/09 09:24:09;;;;;;;182.13;21.73;;;5.00;99.90;;;;;;6252476;22;20799;-78
2022/01/09 09:26:45;;;;;;;279.77;43.07;;;5.10;99.90;;;;;;6225495;23;20421;-78
2022/01/09 09:29:15;;;;;;;191.97;21.43;;;5.10;99.90;;;;;;6250886;23;20406;-78
2022/01/09 09:31:46;;;;;;;282.50;32.83;;;5.10;99.90;;;;;;6225222;23;20414;-78
2022/01/09 09:34:14;;;;;;;204.83;24.77;;;5.20;99.90;;;;;;6224286;23;20433;-78
2022/01/09 09:36:43;;;;;;;236.57;29.07;;;5.20;99.90;;;;;;6224556;23;20422;-79
2022/01/09 09:39:17;;;;;;;222.87;27.73;;;5.30;99.90;;;;;;6251291;23;20416;-79
2022/01/09 09:41:48;;;;;;;278.80;26.37;;;5.30;99.90;;;;;;6263459;23;20512;-79
2022/01/09 09:44:19;;;;;;;175.97;20.77;;;5.30;99.90;;;;;;6225061;23;20997;-78
2022/01/09 09:46:49;;;;;;;219.30;38.90;;;5.30;99.90;;;;;;6225698;23;20441;-79
2022/01/09 09:49:18;;;;;;;282.33;42.20;;;5.40;99.90;;;;;;6224137;23;20460;-78
2022/01/09 09:51:46;;;;;;;239.40;37.20;;;5.40;99.90;;;;;;6226962;23;20441;-78
2022/01/09 09:54:15;;;;;;;220.37;34.40;;;5.40;99.90;;;;;;6226926;23;20488;-78
2022/01/09 09:56:49;;;;;;;250.30;31.60;;;5.40;99.90;;;;;;6257605;22;20421;-79
2022/01/09 09:59:24;;;;;;;136.27;23.33;;;5.50;99.90;;;;;;6263177;23;20383;-78
2022/01/09 10:01:52;;;;;;;189.77;31.93;;;5.50;99.90;;;;;;6225883;23;20453;-78
2022/01/09 10:04:25;;;;;;;230.87;42.07;;;5.50;99.90;;;;;;6251978;22;20426;-78
2022/01/09 10:06:54;;;;;;;153.43;23.57;;;5.50;99.90;;;;;;6225151;23;20489;-79
2022/01/09 10:09:25;;;;;;;220.23;29.73;;;5.50;99.90;;;;;;6261509;23;20405;-79
2022/01/09 10:12:00;;;;;;;136.87;16.70;;;5.60;99.90;;;;;;6250014;23;20414;-79
2022/01/09 10:14:36;;;;;;;253.43;37.37;;;5.60;99.90;;;;;;6262169;22;20416;-79
2022/01/09 10:21:14;;;;;;;348.37;39.97;;;5.70;99.90;;;;;;6084469;23;20442;-79
2022/01/09 10:23:58;;;;;;;221.30;29.57;;;5.70;99.90;;;;;;6159005;23;20950;-78
2022/01/09 10:26:33;;;;;;;285.43;46.33;;;5.70;99.90;;;;;;6158205;23;20427;-78
2022/01/09 10:29:05;;;;;;;200.83;29.87;;;5.70;99.90;;;;;;6134386;23;20443;-79
2022/01/09 10:31:42;;;;;;;174.03;31.50;;;5.70;99.90;;;;;;6133250;23;20443;-80
2022/01/09 10:34:12;;;;;;;203.33;28.27;;;5.80;99.90;;;;;;6167244;23;20459;-79
2022/01/09 10:36:43;;;;;;;207.43;28.93;;;5.80;99.90;;;;;;6160248;23;20435;-78
2022/01/09 10:39:16;;;;;;;155.03;21.70;;;5.80;99.90;;;;;;6157920;23;20416;-78
2022/01/09 10:41:53;;;;;;;103.80;15.10;;;5.80;99.90;;;;;;6168062;23;20417;-79
2022/01/09 10:44:27;;;;;;;234.93;30.83;;;5.80;99.90;;;;;;6134144;23;20474;-78
2022/01/09 10:46:58;;;;;;;169.93;24.20;;;5.80;99.90;;;;;;6261042;23;20377;-79
2022/01/09 10:49:37;;;;;;;331.90;42.73;;;5.90;99.90;;;;;;6224069;23;20401;-79
2022/01/09 10:52:17;;;;;;;225.87;32.13;;;5.90;99.90;;;;;;6223695;23;20418;-78
2022/01/09 10:54:47;;;;;;;240.67;32.13;;;5.90;99.90;;;;;;6223679;23;20437;-78
2022/01/09 10:57:17;;;;;;;253.87;34.27;;;5.90;99.90;;;;;;6250487;23;20448;-79
2022/01/09 10:59:47;;;;;;;153.37;21.90;;;5.90;99.90;;;;;;6262090;23;20910;-79
2022/01/09 11:02:19;;;;;;;257.73;28.30;;;5.90;99.90;;;;;;6223869;23;20920;-79
2022/01/09 11:04:49;;;;;;;281.50;38.97;;;5.90;99.90;;;;;;6224304;23;20460;-78
2022/01/09 11:07:22;;;;;;;253.67;30.07;;;5.90;99.90;;;;;;6250997;23;20463;-78
2022/01/09 11:09:57;;;;;;;212.60;31.50;;;5.90;99.90;;;;;;6223318;23;20742;-78
2022/01/09 11:12:33;;;;;;;169.13;26.07;;;6.00;99.90;;;;;;6221519;23;20413;-78
2022/01/09 11:15:12;;;;;;;171.10;33.70;;;5.90;99.90;;;;;;6258698;22;20428;-78
2022/01/09 11:17:42;;;;;;;246.57;34.17;;;5.90;99.90;;;;;;6249113;23;20485;-78
2022/01/09 11:20:11;;;;;;;200.43;29.53;;;6.00;99.90;;;;;;6246976;22;20746;-78
2022/01/09 11:22:43;;;;;;;283.07;31.47;;;6.00;99.90;;;;;;6221535;23;20444;-78
2022/01/09 11:25:16;;;;;;;189.73;27.40;;;6.00;99.90;;;;;;6248689;22;20452;-78
2022/01/09 11:28:04;;;;;;;110.20;18.63;;;6.00;99.90;;;;;;6258724;23;20404;-78
2022/01/09 11:30:51;;;;;;;149.30;29.73;;;6.00;99.90;;;;;;6248400;23;20386;-78
2022/01/09 11:33:46;;;;;;;178.73;23.77;;;6.00;99.90;;;;;;6222082;23;20857;-78
2022/01/09 11:36:23;;;;;;;179.70;29.00;;;6.00;99.90;;;;;;6208197;23;20449;-78
2022/01/09 11:38:59;;;;;;;277.33;33.40;;;6.00;99.90;;;;;;6248806;23;20923;-78
2022/01/09 11:41:30;;;;;;;205.70;22.27;;;6.00;99.90;;;;;;6221885;23;20453;-78
2022/01/09 11:44:05;;;;;;;281.30;28.40;;;6.00;99.90;;;;;;6222082;23;20920;-78
2022/01/09 11:46:56;;;;;;;213.07;25.33;;;6.00;99.90;;;;;;6223188;23;20409;-78
2022/01/09 11:49:32;;;;;;;261.17;28.57;;;6.00;99.90;;;;;;6223996;23;20417;-78
2022/01/09 11:52:00;;;;;;;174.50;24.27;;;6.00;99.90;;;;;;6223630;23;20861;-78
2022/01/09 11:54:30;;;;;;;215.73;30.03;;;6.00;99.90;;;;;;6222713;23;20526;-78
2022/01/09 11:57:14;;;;;;;98.97;14.90;;;6.00;99.90;;;;;;6248712;23;20908;-78
2022/01/09 11:59:55;;;;;;;120.03;24.93;;;6.00;99.90;;;;;;6247711;23;20429;-78
2022/01/09 12:02:37;;;;;;;204.27;27.03;;;6.00;99.90;;;;;;6223647;23;20422;-78
2022/01/09 12:05:12;;;;;;;199.50;23.40;;;6.00;99.90;;;;;;6248745;23;20904;-78
2022/01/09 12:08:10;;;;;;;153.47;25.30;;;6.00;99.90;;;;;;6223888;23;20796;-78
2022/01/09 12:10:52;;;;;;;234.80;26.33;;;6.10;99.90;;;;;;6249087;23;20402;-78
2022/01/09 12:13:51;;;;;;;222.27;36.40;;;6.10;99.90;;;;;;6247493;23;20527;-78
2022/01/09 12:16:51;;;;;;;267.87;33.03;;;6.10;99.90;;;;;;6259443;23;20465;-78
2022/01/09 12:20:04;;;;;;;160.43;28.20;;;6.10;99.90;;;;;;6248467;23;20418;-78
2022/01/09 12:23:05;;;;;;;184.53;37.87;;;6.10;99.90;;;;;;6222474;23;20792;-77
2022/01/09 12:25:45;;;;;;;255.67;28.23;;;6.10;99.90;;;;;;6224116;23;20412;-79
2022/01/09 12:28:15;;;;;;;114.37;20.20;;;6.00;99.90;;;;;;6222354;23;20416;-77
2022/01/09 12:30:51;;;;;;;123.43;16.83;;;6.00;99.90;;;;;;6222503;23;20891;-77
2022/01/09 12:33:45;;;;;;;155.50;17.23;;;6.00;99.90;;;;;;6260457;22;20421;-78
2022/01/09 12:36:33;;;;;;;123.03;23.00;;;6.00;99.90;;;;;;6223602;23;20421;-78
2022/01/09 12:39:05;;;;;;;218.87;24.93;;;6.00;99.90;;;;;;6223632;23;20474;-78
2022/01/09 12:41:47;;;;;;;256.53;34.10;;;6.00;99.90;;;;;;6224262;23;20409;-78
2022/01/09 12:44:16;;;;;;;224.27;28.90;;;6.00;99.90;;;;;;6224138;23;20433;-77
2022/01/09 12:46:45;;;;;;;223.43;30.47;;;6.00;99.90;;;;;;6223770;23;20425;-77
2022/01/09 12:49:15;;;;;;;271.30;29.77;;;6.00;99.90;;;;;;6223985;23;20927;-79
2022/01/09 12:51:51;;;;;;;337.03;49.43;;;6.00;99.90;;;;;;6224301;23;20402;-78
2022/01/09 12:54:23;;;;;;;237.03;29.23;;;6.00;99.90;;;;;;6223152;23;20441;-78
2022/01/09 12:56:51;;;;;;;283.77;32.60;;;6.00;99.90;;;;;;6260421;23;20417;-79
2022/01/09 12:59:24;;;;;;;159.73;29.00;;;6.00;99.90;;;;;;6222949;23;20452;-78
2022/01/09 13:01:52;;;;;;;252.97;29.43;;;6.00;99.90;;;;;;6222519;23;20434;-78
2022/01/09 13:04:25;;;;;;;166.87;18.13;;;6.00;99.90;;;;;;6222504;23;20491;-79